createdAt,value
2022-08-07T00:02:46.456Z,0
2022-08-07T00:06:11.865Z,0
2022-08-07T00:09:37.219Z,0
2022-08-07T00:13:03.282Z,0
2022-08-07T00:16:28.292Z,0
2022-08-07T00:20:00.822Z,0
2022-08-07T00:23:21.051Z,0
2022-08-07T00:26:48.987Z,0
2022-08-07T00:30:21.851Z,0
2022-08-07T00:33:34.774Z,0
2022-08-07T00:37:00.091Z,0
2022-08-07T00:40:36.749Z,0
2022-08-07T00:43:59.946Z,0
2022-08-07T00:48:16.288Z,0
2022-08-07T00:50:46.732Z,0
2022-08-07T00:54:07.023Z,0
2022-08-07T00:57:34.081Z,0
2022-08-07T01:00:57.707Z,0
2022-08-07T01:04:24.886Z,0
2022-08-07T01:07:48.466Z,0
2022-08-07T01:12:05.507Z,0
2022-08-07T01:14:39.150Z,0
2022-08-07T01:18:04.506Z,0
2022-08-07T01:21:29.833Z,0
2022-08-07T01:24:55.209Z,0
2022-08-07T01:28:20.596Z,0
2022-08-07T01:31:46.157Z,0
2022-08-07T01:35:11.320Z,0
2022-08-07T01:38:36.688Z,0
2022-08-07T01:42:07.947Z,0
2022-08-07T01:45:36.538Z,0
2022-08-07T01:48:52.749Z,0
2022-08-07T01:52:18.098Z,0
2022-08-07T01:55:43.454Z,0
2022-08-07T01:59:08.812Z,0
2022-08-07T02:03:12.890Z,0
2022-08-07T02:06:00.918Z,0
2022-08-07T02:09:33.702Z,0
2022-08-07T02:12:50.439Z,0
2022-08-07T02:16:16.038Z,0
2022-08-07T02:20:05.937Z,0
2022-08-07T02:23:06.215Z,0
2022-08-07T02:26:34.326Z,0
2022-08-07T02:29:56.857Z,0
2022-08-07T02:33:22.162Z,0
2022-08-07T02:36:47.475Z,0
2022-08-07T02:40:30.340Z,0
2022-08-07T02:43:38.850Z,0
2022-08-07T02:47:03.440Z,0
2022-08-07T02:50:30.813Z,0
2022-08-07T02:53:54.115Z,0
2022-08-07T02:57:19.441Z,0
2022-08-07T03:00:46.939Z,0
2022-08-07T03:04:12.423Z,0
2022-08-07T03:07:43.432Z,0
2022-08-07T03:11:00.761Z,0
2022-08-07T03:14:26.088Z,0
2022-08-07T03:17:53.171Z,0
2022-08-07T03:21:18.995Z,0
2022-08-07T03:24:42.081Z,0
2022-08-07T03:28:09.316Z,0
2022-08-07T03:31:42.961Z,0
2022-08-07T03:35:01.237Z,0
2022-08-07T03:38:29.511Z,0
2022-08-07T03:41:50.822Z,0
2022-08-07T03:45:20.856Z,0
2022-08-07T03:48:45.245Z,0
2022-08-07T03:52:04.601Z,0
2022-08-07T03:55:46.139Z,0
2022-08-07T03:59:07.610Z,0
2022-08-07T04:02:20.540Z,0
2022-08-07T04:05:45.932Z,0
2022-08-07T04:09:15.106Z,0
2022-08-07T04:12:36.563Z,0
2022-08-07T04:16:01.877Z,0
2022-08-07T04:19:34.178Z,0
2022-08-07T04:22:53.239Z,0
2022-08-07T04:26:21.752Z,0
2022-08-07T04:29:49.094Z,0
2022-08-07T04:33:08.484Z,0
2022-08-07T04:36:33.797Z,0
2022-08-07T04:39:59.211Z,0
2022-08-07T04:43:28.399Z,0
2022-08-07T04:46:59.778Z,0
2022-08-07T04:50:15.077Z,6
2022-08-07T04:54:02.188Z,6
2022-08-07T04:58:08.338Z,11
2022-08-07T05:00:31.818Z,17
2022-08-07T05:04:00.869Z,23
2022-08-07T05:07:24.123Z,23
2022-08-07T05:10:46.981Z,23
2022-08-07T05:14:45.776Z,28
2022-08-07T05:17:50.490Z,34
2022-08-07T05:21:03.929Z,34
2022-08-07T05:24:30.540Z,34
2022-08-07T05:28:02.180Z,28
2022-08-07T05:31:18.928Z,28
2022-08-07T05:34:44.244Z,28
2022-08-07T05:38:09.898Z,28
2022-08-07T05:42:00.801Z,28
2022-08-07T05:45:04.607Z,28
2022-08-07T05:48:26.461Z,34
2022-08-07T05:51:51.178Z,34
2022-08-07T05:55:16.468Z,39
2022-08-07T05:58:41.776Z,39
2022-08-07T06:02:07.104Z,39
2022-08-07T06:05:32.346Z,39
2022-08-07T06:08:57.662Z,39
2022-08-07T06:12:27.749Z,39
2022-08-07T06:15:49.879Z,45
2022-08-07T06:19:17.733Z,45
2022-08-07T06:22:50.713Z,51
2022-08-07T06:26:09.638Z,62
2022-08-07T06:29:39.229Z,62
2022-08-07T06:33:04.868Z,73
2022-08-07T06:36:35.099Z,68
2022-08-07T06:40:14.124Z,62
2022-08-07T06:43:22.323Z,62
2022-08-07T06:46:53.139Z,56
2022-08-07T06:50:13.285Z,56
2022-08-07T06:54:12.293Z,51
2022-08-07T06:57:03.905Z,51
2022-08-07T07:00:29.187Z,51
2022-08-07T07:03:56.391Z,51
2022-08-07T07:07:58.759Z,51
2022-08-07T07:10:47.491Z,51
2022-08-07T07:14:12.016Z,45
2022-08-07T07:17:39.006Z,39
2022-08-07T07:21:02.644Z,39
2022-08-07T07:24:27.922Z,34
2022-08-07T07:27:55.995Z,39
2022-08-07T07:31:21.504Z,45
2022-08-07T07:34:43.867Z,51
2022-08-07T07:38:21.880Z,51
2022-08-07T07:41:50.517Z,51
2022-08-07T07:45:12.583Z,51
2022-08-07T07:48:37.937Z,56
2022-08-07T07:52:03.374Z,62
2022-08-07T07:55:37.261Z,62
2022-08-07T07:58:54.390Z,68
2022-08-07T08:02:22.832Z,62
2022-08-07T08:05:54.705Z,62
2022-08-07T08:09:10.017Z,56
2022-08-07T08:12:52.121Z,56
2022-08-07T08:16:00.873Z,56
2022-08-07T08:20:16.855Z,56
2022-08-07T08:22:54.201Z,56
2022-08-07T08:26:16.575Z,51
2022-08-07T08:29:45.259Z,51
2022-08-07T08:33:10.501Z,56
2022-08-07T08:36:32.741Z,56
2022-08-07T08:39:58.549Z,56
2022-08-07T08:43:31.912Z,56
2022-08-07T08:46:48.740Z,51
2022-08-07T08:50:16.300Z,34
2022-08-07T08:53:39.389Z,45
2022-08-07T08:57:04.738Z,45
2022-08-07T09:00:30.052Z,45
2022-08-07T09:03:55.622Z,45
2022-08-07T09:07:22.936Z,45
2022-08-07T09:10:46.140Z,45
2022-08-07T09:14:11.449Z,34
2022-08-07T09:17:58.783Z,51
2022-08-07T09:21:02.120Z,51
2022-08-07T09:24:30.073Z,45
2022-08-07T09:27:54.768Z,17
2022-08-07T09:31:18.111Z,17
2022-08-07T09:34:43.413Z,17
2022-08-07T09:38:10.285Z,11
2022-08-07T09:41:36.088Z,17
2022-08-07T09:46:28.800Z,56
2022-08-07T09:48:28.780Z,51
2022-08-07T09:52:09.615Z,56
2022-08-07T09:55:17.223Z,56
2022-08-07T09:58:41.554Z,56
2022-08-07T10:02:06.164Z,56
2022-08-07T10:05:59.293Z,62
2022-08-07T10:08:56.836Z,68
2022-08-07T10:12:26.234Z,68
2022-08-07T10:15:47.658Z,73
2022-08-07T10:19:12.948Z,73
2022-08-07T10:22:38.313Z,79
2022-08-07T10:26:03.735Z,79
2022-08-07T10:29:30.249Z,79
2022-08-07T10:32:59.544Z,84
2022-08-07T10:36:29.502Z,90
2022-08-07T10:39:57.719Z,90
2022-08-07T10:43:10.744Z,90
2022-08-07T10:46:36.104Z,96
2022-08-07T10:50:01.484Z,96
2022-08-07T10:53:26.780Z,96
2022-08-07T10:57:08.150Z,96
2022-08-07T11:00:37.102Z,96
2022-08-07T11:04:16.799Z,96
2022-08-07T11:07:56.727Z,96
2022-08-07T11:10:55.536Z,96
2022-08-07T11:14:43.204Z,96
2022-08-07T11:17:42.994Z,96
2022-08-07T11:21:07.079Z,96
2022-08-07T11:24:32.542Z,96
2022-08-07T11:28:02.241Z,96
2022-08-07T11:31:23.143Z,96
2022-08-07T11:34:48.478Z,96
2022-08-07T11:38:17.462Z,96
2022-08-07T11:42:00.588Z,96
2022-08-07T11:45:04.383Z,96
2022-08-07T11:48:30.382Z,90
2022-08-07T11:51:55.004Z,90
2022-08-07T11:56:08.827Z,90
2022-08-07T11:58:50.021Z,90
2022-08-07T12:02:17.826Z,90
2022-08-07T12:05:41.531Z,90
2022-08-07T12:09:05.703Z,90
2022-08-07T12:12:31.047Z,84
2022-08-07T12:16:05.548Z,84
2022-08-07T12:19:22.049Z,84
2022-08-07T12:22:56.661Z,17
2022-08-07T12:26:23.733Z,84
2022-08-07T12:29:40.311Z,79
2022-08-07T12:33:09.247Z,79
2022-08-07T12:36:33.223Z,79
2022-08-07T12:39:57.308Z,79
2022-08-07T12:44:03.226Z,79
2022-08-07T12:46:46.798Z,73
2022-08-07T12:50:34.602Z,73
2022-08-07T12:54:02.532Z,73
2022-08-07T12:57:07.031Z,73
2022-08-07T13:00:31.196Z,73
2022-08-07T13:03:56.512Z,68
2022-08-07T13:08:11.490Z,68
2022-08-07T13:10:51.919Z,68
2022-08-07T13:14:09.390Z,68
2022-08-07T13:17:40.141Z,68
2022-08-07T13:21:00.092Z,62
2022-08-07T13:24:25.710Z,62
2022-08-07T13:28:06.113Z,62
2022-08-07T13:31:16.255Z,62
2022-08-07T13:34:44.628Z,56
2022-08-07T13:38:06.987Z,56
2022-08-07T13:41:32.350Z,56
2022-08-07T13:44:57.709Z,56
2022-08-07T13:48:27.991Z,56
2022-08-07T13:52:02.719Z,51
2022-08-07T13:55:19.446Z,51
2022-08-07T13:58:39.359Z,51
2022-08-07T14:02:05.347Z,51
2022-08-07T14:05:53.506Z,45
2022-08-07T14:10:00.994Z,45
2022-08-07T14:13:00.511Z,45
2022-08-07T14:16:31.238Z,45
2022-08-07T14:20:41.551Z,45
2022-08-07T14:23:31.276Z,39
2022-08-07T14:26:51.353Z,39
2022-08-07T15:05:54.451Z,17
2022-08-07T15:09:58.756Z,34
2022-08-07T15:12:30.695Z,28
2022-08-07T15:15:55.721Z,28
2022-08-07T15:19:21.109Z,28
2022-08-07T15:26:20.696Z,28
2022-08-07T15:33:04.257Z,23
2022-08-07T15:36:57.496Z,23
2022-08-07T15:39:56.748Z,23
2022-08-07T15:43:33.370Z,23
2022-08-07T15:46:50.079Z,23
2022-08-07T15:50:09.294Z,23
2022-08-07T15:53:42.310Z,23
2022-08-07T15:56:59.967Z,23
2022-08-07T16:00:31.157Z,17
2022-08-07T16:03:55.576Z,17
2022-08-07T16:08:28.839Z,17
2022-08-07T16:10:41.253Z,17
2022-08-07T16:14:06.591Z,17
2022-08-07T16:18:01.097Z,17
2022-08-07T16:21:43.871Z,17
2022-08-07T16:24:34.066Z,17
2022-08-07T16:27:47.963Z,11
2022-08-07T16:31:13.326Z,11
2022-08-07T16:34:38.682Z,11
2022-08-07T16:38:07.610Z,11
2022-08-07T16:41:29.500Z,11
2022-08-07T16:45:14.627Z,11
2022-08-07T16:48:23.192Z,11
2022-08-07T16:51:51.729Z,11
2022-08-07T16:55:12.975Z,11
2022-08-07T16:58:54.551Z,11
2022-08-07T17:02:02.828Z,6
2022-08-07T17:06:01.631Z,6
2022-08-07T17:09:08.914Z,6
2022-08-07T17:12:33.666Z,6
2022-08-07T17:15:43.621Z,6
2022-08-07T17:19:14.562Z,6
2022-08-07T17:22:42.654Z,6
2022-08-07T17:26:23.077Z,6
2022-08-07T17:30:13.702Z,6
2022-08-07T17:33:39.288Z,6
2022-08-07T17:36:33.637Z,6
2022-08-07T17:40:03.537Z,6
2022-08-07T17:43:39.713Z,6
2022-08-07T17:46:52.359Z,6
2022-08-07T17:50:16.665Z,6
2022-08-07T17:54:00.350Z,6
2022-08-07T17:57:19.157Z,0
2022-08-07T18:00:33.527Z,0
2022-08-07T18:04:04.713Z,0
2022-08-07T18:07:23.572Z,0
2022-08-07T18:12:08.557Z,0
2022-08-07T18:14:16.349Z,0
2022-08-07T18:18:32.931Z,0
2022-08-07T18:21:29.981Z,0
2022-08-07T18:24:28.588Z,0
2022-08-07T18:27:53.458Z,0
2022-08-07T18:31:18.868Z,0
2022-08-07T18:34:53.071Z,0
2022-08-07T18:38:54.229Z,0
2022-08-07T18:41:44.810Z,0
2022-08-07T18:45:40.479Z,0
2022-08-07T18:48:38.099Z,0
2022-08-07T18:52:34.426Z,0
2022-08-07T18:55:40.351Z,0
2022-08-07T18:58:42.016Z,0
2022-08-07T19:02:17.752Z,0
2022-08-07T19:06:02.952Z,0
2022-08-07T19:08:58.575Z,0
2022-08-07T19:12:26.238Z,0
2022-08-07T19:16:02.537Z,0
2022-08-07T19:19:14.343Z,0
2022-08-07T19:22:39.756Z,0
2022-08-07T19:26:22.412Z,0
2022-08-07T19:30:55.024Z,0
2022-08-07T19:32:59.539Z,0
2022-08-07T19:36:27.591Z,0
2022-08-07T19:39:56.253Z,0
2022-08-07T19:43:12.773Z,0
2022-08-07T19:46:37.525Z,0
2022-08-07T19:50:03.278Z,0
2022-08-07T19:54:29.361Z,0
2022-08-07T19:57:24.949Z,0
2022-08-07T20:00:21.753Z,0
2022-08-07T20:03:44.568Z,0
2022-08-07T20:07:10.063Z,0
2022-08-07T20:10:38.995Z,0
2022-08-07T20:14:00.587Z,0
2022-08-07T20:17:25.996Z,0
2022-08-07T20:20:51.349Z,0
2022-08-07T20:24:16.750Z,0
2022-08-07T20:27:46.673Z,0
2022-08-07T20:31:07.499Z,0
2022-08-07T20:34:49.134Z,0
2022-08-07T20:38:00.773Z,0
2022-08-07T20:41:23.718Z,0
2022-08-07T20:44:49.420Z,0
2022-08-07T20:48:25.770Z,0
2022-08-07T20:51:40.263Z,0
2022-08-07T20:55:05.133Z,0
2022-08-07T20:58:30.514Z,0
2022-08-07T21:01:58.135Z,0
2022-08-07T21:05:25.650Z,0
2022-08-07T21:08:46.805Z,0
2022-08-07T21:12:15.046Z,0
2022-08-07T21:15:48.352Z,0
2022-08-07T21:19:02.738Z,0
2022-08-07T21:22:28.543Z,0
2022-08-07T21:25:56.612Z,0
2022-08-07T21:29:18.822Z,0
2022-08-07T21:32:49.014Z,0
2022-08-07T21:36:11.733Z,0
2022-08-07T21:39:46.915Z,0
2022-08-07T21:43:00.310Z,0
2022-08-07T21:46:31.535Z,0
2022-08-07T21:50:01.318Z,0
2022-08-07T21:53:16.336Z,0
2022-08-07T21:56:48.326Z,0
2022-08-07T22:00:07.309Z,0
2022-08-07T22:03:32.514Z,0
2022-08-07T22:06:57.861Z,0
2022-08-07T22:10:24.494Z,0
2022-08-07T22:13:50.694Z,0
2022-08-07T22:17:13.933Z,0
2022-08-07T22:20:39.307Z,0
2022-08-07T22:24:04.702Z,0
2022-08-07T22:27:34.265Z,0
2022-08-07T22:30:55.420Z,0
2022-08-07T22:34:28.579Z,0
2022-08-07T22:38:02.045Z,0
2022-08-07T22:41:11.498Z,0
2022-08-07T22:44:36.832Z,0
2022-08-07T22:48:02.183Z,0
2022-08-07T22:51:27.532Z,0
2022-08-07T22:54:52.827Z,0
2022-08-07T22:58:18.147Z,0
2022-08-07T23:01:49.570Z,0
2022-08-07T23:06:10.447Z,0
2022-08-07T23:08:34.167Z,0
2022-08-07T23:11:59.626Z,0
2022-08-07T23:16:05.138Z,0
2022-08-07T23:18:50.157Z,0
2022-08-07T23:22:15.491Z,0
2022-08-07T23:25:41.446Z,0
2022-08-07T23:29:17.227Z,0
2022-08-07T23:32:49.729Z,0
2022-08-07T23:35:56.694Z,0
2022-08-07T23:39:22.423Z,0
2022-08-07T23:42:47.348Z,0
2022-08-07T23:46:12.654Z,0
2022-08-07T23:49:42.391Z,0
2022-08-07T23:53:05.165Z,0
2022-08-07T23:56:31.288Z,0
